Big Pine, California
Current Conditions -  °F | °C
As of 3:56 AM on Friday 19 Dec 2014 (Local Time) from KBIH Reporting Station
Clear Clear  
Wind Chill: 28°   Ceiling: Unl
Heat Index: 28°   Visibility: 10mi
Dew Point: 24°   Wind: 3mph
Humidity: 85%   Direction: 360°N
Pressure: 30.21"   Gusts: NA
Location:  37.16°N, 118.29°W
Report Text: KBIH 191156Z AUTO 36003KT 10SM CLR M02/M04 A3021 RMK AO2 SLP227 T10221044 11006 21033 55002
Loading
Personal Weather Stations






























Interactive Weather Map New forecast layout! Learn more

10-Day Weather Forecast

Advertisements
Track Severe Weather on mobile